createdAt,value
2022-09-02T00:00:00.353Z,95355
2022-09-02T00:03:25.847Z,95350
2022-09-02T00:06:50.773Z,95350
2022-09-02T00:10:15.982Z,95349
2022-09-02T00:13:41.197Z,95349
2022-09-02T00:17:06.388Z,95346
2022-09-02T00:20:31.622Z,95341
2022-09-02T00:23:56.848Z,95339
2022-09-02T00:27:22.014Z,95339
2022-09-02T00:30:47.225Z,95336
2022-09-02T00:34:12.433Z,95333
2022-09-02T00:37:37.643Z,95334
2022-09-02T00:41:02.871Z,95332
2022-09-02T00:44:28.058Z,95330
2022-09-02T00:47:53.251Z,95325
2022-09-02T00:51:18.465Z,95322
2022-09-02T00:54:43.678Z,95320
2022-09-02T00:58:09.374Z,95320
2022-09-02T01:01:34.205Z,95320
2022-09-02T01:04:59.304Z,95321
2022-09-02T01:08:24.476Z,95318
2022-09-02T01:11:49.722Z,95324
2022-09-02T01:15:14.932Z,95317
2022-09-02T01:18:40.122Z,95313
2022-09-02T01:22:05.333Z,95315
2022-09-02T01:25:30.497Z,95318
2022-09-02T01:28:55.663Z,95314
2022-09-02T01:32:20.868Z,95319
2022-09-02T01:35:46.078Z,95309
2022-09-02T01:39:11.265Z,95312
2022-09-02T01:42:36.476Z,95308
2022-09-02T01:46:01.673Z,95308
2022-09-02T01:49:26.885Z,95302
2022-09-02T01:52:52.077Z,95304
2022-09-02T01:56:17.320Z,95299
2022-09-02T01:59:42.550Z,95301
2022-09-02T02:03:07.735Z,95295
2022-09-02T02:06:32.950Z,95288
2022-09-02T02:09:58.146Z,95292
2022-09-02T02:13:23.516Z,95290
2022-09-02T02:16:48.577Z,95284
2022-09-02T02:20:13.762Z,95286
2022-09-02T02:23:38.938Z,95284
2022-09-02T02:27:04.131Z,95284
2022-09-02T02:30:29.343Z,95283
2022-09-02T02:33:54.540Z,95285
2022-09-02T02:37:23.463Z,95290
2022-09-02T02:40:45.020Z,95291
2022-09-02T02:44:10.143Z,95289
2022-09-02T02:47:35.351Z,95287
2022-09-02T02:51:00.561Z,95282
2022-09-02T02:54:27.535Z,95285
2022-09-02T02:57:50.951Z,95278
2022-09-02T03:01:16.223Z,95275
2022-09-02T03:04:41.448Z,95274
2022-09-02T03:08:06.632Z,95275
2022-09-02T03:11:31.869Z,95277
2022-09-02T03:14:57.078Z,95283
2022-09-02T03:18:22.289Z,95275
2022-09-02T03:21:47.488Z,95270
2022-09-02T03:25:12.708Z,95272
2022-09-02T03:28:37.893Z,95262
2022-09-02T03:32:03.128Z,95268
2022-09-02T03:35:28.287Z,95273
2022-09-02T03:38:53.477Z,95266
2022-09-02T03:42:19.523Z,95259
2022-09-02T03:45:43.957Z,95259
2022-09-02T03:49:09.089Z,95256
2022-09-02T03:52:34.289Z,95255
2022-09-02T03:55:59.485Z,95252
2022-09-02T03:59:24.705Z,95263
2022-09-02T04:02:50.169Z,95260
2022-09-02T04:06:15.109Z,95252
2022-09-02T04:09:43.471Z,95254
2022-09-02T04:13:05.510Z,95258
2022-09-02T04:16:30.838Z,95259
2022-09-02T04:19:55.996Z,95264
2022-09-02T04:23:21.217Z,95264
2022-09-02T04:26:46.376Z,95260
2022-09-02T04:30:11.573Z,95257
2022-09-02T04:33:36.743Z,95262
2022-09-02T04:37:01.938Z,95258
2022-09-02T04:40:27.178Z,95250
2022-09-02T04:43:52.348Z,95252
2022-09-02T04:47:17.537Z,95254
2022-09-02T04:50:42.777Z,95256
2022-09-02T04:54:07.963Z,95254
2022-09-02T04:57:33.115Z,95258
2022-09-02T05:00:58.300Z,95259
2022-09-02T05:04:23.497Z,95261
2022-09-02T05:07:48.754Z,95257
2022-09-02T05:11:13.924Z,95256
2022-09-02T05:14:39.129Z,95260
2022-09-02T05:18:04.320Z,95261
2022-09-02T05:21:29.497Z,95258
2022-09-02T05:24:54.695Z,95257
2022-09-02T05:28:19.989Z,95258
2022-09-02T05:31:45.192Z,95258
2022-09-02T05:35:10.426Z,95256
2022-09-02T05:38:35.646Z,95255
2022-09-02T05:42:00.856Z,95261
2022-09-02T05:45:26.074Z,95266
2022-09-02T05:48:51.278Z,95267
2022-09-02T05:52:16.489Z,95268
2022-09-02T05:55:41.663Z,95266
2022-09-02T05:59:06.908Z,95258
2022-09-02T06:02:32.184Z,95260
2022-09-02T06:05:57.339Z,95260
2022-09-02T06:09:22.583Z,95259
2022-09-02T06:12:47.794Z,95257
2022-09-02T06:16:13.063Z,95269
2022-09-02T06:19:38.212Z,95271
2022-09-02T06:23:03.433Z,95267
2022-09-02T06:26:28.655Z,95267
2022-09-02T06:29:53.848Z,95273
2022-09-02T06:33:19.056Z,95266
2022-09-02T06:36:44.267Z,95267
2022-09-02T06:40:09.484Z,95272
2022-09-02T06:43:37.662Z,95258
2022-09-02T06:46:59.829Z,95259
2022-09-02T06:50:25.033Z,95254
2022-09-02T06:53:50.255Z,95258
2022-09-02T06:57:15.455Z,95259
2022-09-02T07:00:40.653Z,95264
2022-09-02T07:04:05.819Z,95269
2022-09-02T07:07:31.009Z,95265
2022-09-02T07:10:56.184Z,95269
2022-09-02T07:14:21.350Z,95273
2022-09-02T07:17:46.532Z,95269
2022-09-02T07:21:11.704Z,95265
2022-09-02T07:24:36.880Z,95267
2022-09-02T07:28:02.067Z,95267
2022-09-02T07:31:27.255Z,95273
2022-09-02T07:34:52.404Z,95271
2022-09-02T07:38:17.587Z,95273
2022-09-02T07:41:42.796Z,95276
2022-09-02T07:45:07.962Z,95276
2022-09-02T07:48:33.141Z,95273
2022-09-02T07:51:58.318Z,95273
2022-09-02T07:55:23.495Z,95276
2022-09-02T07:58:48.673Z,95270
2022-09-02T08:02:13.887Z,95269
2022-09-02T08:05:39.052Z,95263
2022-09-02T08:09:04.230Z,95267
2022-09-02T08:12:29.459Z,95264
2022-09-02T08:15:54.652Z,95265
2022-09-02T08:19:19.822Z,95268
2022-09-02T08:22:46.749Z,95276
2022-09-02T08:26:10.222Z,95275
2022-09-02T08:29:35.383Z,95278
2022-09-02T08:33:00.549Z,95276
2022-09-02T08:36:25.745Z,95272
2022-09-02T08:39:50.922Z,95268
2022-09-02T08:43:16.110Z,95272
2022-09-02T08:46:41.323Z,95271
2022-09-02T08:50:06.519Z,95268
2022-09-02T08:53:31.685Z,95263
2022-09-02T08:56:56.937Z,95265
2022-09-02T09:00:22.177Z,95263
2022-09-02T09:03:47.367Z,95257
2022-09-02T09:07:12.550Z,95258
2022-09-02T09:10:37.727Z,95255
2022-09-02T09:14:02.908Z,95255
2022-09-02T09:17:28.098Z,95253
2022-09-02T09:20:53.289Z,95260
2022-09-02T09:24:18.459Z,95255
2022-09-02T09:27:43.662Z,95249
2022-09-02T09:31:08.883Z,95242
2022-09-02T09:34:34.116Z,95244
2022-09-02T09:37:59.275Z,95239
2022-09-02T09:41:24.490Z,95235
2022-09-02T09:44:49.707Z,95226
2022-09-02T09:48:14.895Z,95215
2022-09-02T09:51:50.308Z,95213
2022-09-02T09:55:05.276Z,95214
2022-09-02T09:58:30.440Z,95216
2022-09-02T10:01:55.674Z,95214
2022-09-02T10:05:20.898Z,95207
2022-09-02T10:08:46.114Z,95212
2022-09-02T10:12:11.285Z,95209
2022-09-02T10:15:36.469Z,95204
2022-09-02T10:19:01.650Z,95201
2022-09-02T10:22:27.810Z,95199
2022-09-02T10:25:51.996Z,95197
2022-09-02T10:29:17.150Z,95200
2022-09-02T10:32:42.359Z,95198
2022-09-02T10:36:07.580Z,95200
2022-09-02T10:39:32.784Z,95191
2022-09-02T10:42:57.967Z,95193
2022-09-02T10:46:23.211Z,95186
2022-09-02T10:49:48.326Z,95180
2022-09-02T10:53:13.519Z,95177
2022-09-02T10:56:38.693Z,95178
2022-09-02T11:00:03.886Z,95170
2022-09-02T11:03:29.179Z,95172
2022-09-02T11:07:03.142Z,95163
2022-09-02T11:10:19.525Z,95161
2022-09-02T11:13:44.723Z,95158
2022-09-02T11:17:13.098Z,95158
2022-09-02T11:20:35.111Z,95146
2022-09-02T11:24:00.347Z,95149
2022-09-02T11:27:39.280Z,95146
2022-09-02T11:34:15.874Z,95150
2022-09-02T11:37:41.076Z,95146
2022-09-02T11:44:31.545Z,95139
2022-09-02T11:47:56.648Z,95134
2022-09-02T11:51:21.863Z,95136
2022-09-02T11:54:47.040Z,95141
2022-09-02T11:58:12.247Z,95135
2022-09-02T12:01:37.450Z,95130
2022-09-02T12:05:03.180Z,95132
2022-09-02T12:08:27.844Z,95130
2022-09-02T12:11:53.024Z,95136
2022-09-02T12:15:18.212Z,95135
2022-09-02T12:18:43.438Z,95125
2022-09-02T12:22:08.609Z,95123
2022-09-02T12:25:33.848Z,95123
2022-09-02T12:28:59.100Z,95122
2022-09-02T12:32:24.284Z,95114
2022-09-02T12:35:49.439Z,95113
2022-09-02T12:39:14.619Z,95110
2022-09-02T12:42:39.814Z,95106
2022-09-02T12:46:04.996Z,95108
2022-09-02T12:49:30.165Z,95100
2022-09-02T12:52:55.423Z,95097
2022-09-02T12:56:20.576Z,95094
2022-09-02T13:00:27.633Z,95092
2022-09-02T13:04:04.002Z,95090
2022-09-02T13:07:29.521Z,95082
2022-09-02T13:10:54.766Z,95077
2022-09-02T13:14:19.922Z,95075
2022-09-02T13:17:45.126Z,95077
2022-09-02T13:21:10.408Z,95075
2022-09-02T13:24:35.635Z,95073
2022-09-02T13:28:00.805Z,95076
2022-09-02T13:31:26.050Z,95073
2022-09-02T13:34:51.193Z,95071
2022-09-02T13:38:17.456Z,95067
2022-09-02T13:41:41.795Z,95063
2022-09-02T13:45:06.770Z,95066
2022-09-02T13:48:31.974Z,95067
2022-09-02T13:51:57.162Z,95063
2022-09-02T13:55:22.507Z,95059
2022-09-02T13:58:47.665Z,95057
2022-09-02T14:02:13.033Z,95051
2022-09-02T14:05:38.020Z,95056
2022-09-02T14:09:03.201Z,95051
2022-09-02T14:12:28.374Z,95053
2022-09-02T14:15:53.793Z,95046
2022-09-02T14:19:18.904Z,95045
2022-09-02T14:22:44.105Z,95038
2022-09-02T14:26:09.314Z,95034
2022-09-02T14:29:34.538Z,95033
2022-09-02T15:05:39.901Z,95012
2022-09-02T15:09:05.109Z,95014
2022-09-02T15:12:30.330Z,95013
2022-09-02T15:15:55.638Z,95011
2022-09-02T15:19:20.726Z,94999
2022-09-02T15:22:45.921Z,95003
2022-09-02T15:26:11.137Z,95006
2022-09-02T15:29:36.365Z,95010
2022-09-02T15:33:01.555Z,95003
2022-09-02T15:36:26.791Z,95000
2022-09-02T15:39:52.085Z,94999
2022-09-02T15:43:17.255Z,94999
2022-09-02T15:46:42.455Z,95000
2022-09-02T15:50:07.720Z,94999
2022-09-02T15:53:32.955Z,95000
2022-09-02T15:56:58.158Z,94998
2022-09-02T16:00:23.405Z,94989
2022-09-02T16:03:48.613Z,94988
2022-09-02T16:07:15.404Z,94989
2022-09-02T16:10:39.042Z,94990
2022-09-02T16:14:04.304Z,94989
2022-09-02T16:17:29.518Z,94988
2022-09-02T16:20:54.777Z,94985
2022-09-02T16:24:20.021Z,94984
2022-09-02T16:27:45.288Z,94983
2022-09-02T16:31:10.560Z,94977
2022-09-02T16:34:35.708Z,94971
2022-09-02T16:38:00.926Z,94962
2022-09-02T16:41:26.155Z,94960
2022-09-02T16:46:04.733Z,94960
2022-09-02T16:49:29.880Z,94956
2022-09-02T16:52:55.351Z,94954
2022-09-02T16:56:20.897Z,94956
2022-09-02T16:59:46.284Z,94952
2022-09-02T17:03:11.664Z,94947
2022-09-02T17:06:41.417Z,94948
2022-09-02T17:10:02.292Z,94952
2022-09-02T17:13:27.604Z,94949
2022-09-02T17:16:52.972Z,94953
2022-09-02T17:20:18.164Z,94947
2022-09-02T17:23:43.469Z,94949
2022-09-02T17:27:08.799Z,94949
2022-09-02T17:30:34.177Z,94949
2022-09-02T17:33:59.308Z,94944
2022-09-02T17:37:24.597Z,94951
2022-09-02T17:40:49.849Z,94949
2022-09-02T17:44:15.108Z,94948
2022-09-02T17:47:40.385Z,94951
2022-09-02T17:51:05.670Z,94949
2022-09-02T17:54:30.917Z,94946
2022-09-02T17:57:56.199Z,94946
2022-09-02T18:01:21.801Z,94943
2022-09-02T18:04:47.065Z,94952
2022-09-02T18:08:12.366Z,94949
2022-09-02T18:11:37.602Z,94947
2022-09-02T18:15:02.911Z,94956
2022-09-02T18:18:28.561Z,94956
2022-09-02T18:21:53.460Z,94956
2022-09-02T18:25:18.747Z,94967
2022-09-02T18:28:44.020Z,94968
2022-09-02T18:32:09.298Z,94975
2022-09-02T18:35:34.576Z,94978
2022-09-02T18:38:59.853Z,94982
2022-09-02T18:42:25.131Z,94980
2022-09-02T18:45:50.532Z,94980
2022-09-02T18:49:15.772Z,94982
2022-09-02T18:52:41.086Z,94983
2022-09-02T18:56:06.362Z,94992
2022-09-02T18:59:33.911Z,95002
2022-09-02T19:02:59.193Z,94996
2022-09-02T19:06:25.583Z,95000
2022-09-02T19:09:52.624Z,95005
2022-09-02T19:13:18.771Z,95012
2022-09-02T19:16:45.533Z,95011
2022-09-02T19:20:10.841Z,95011
2022-09-02T19:23:36.107Z,95020
2022-09-02T19:27:01.397Z,95018
2022-09-02T19:30:26.674Z,95020
2022-09-02T19:33:51.969Z,95017
2022-09-02T19:37:17.285Z,95018
2022-09-02T19:40:42.554Z,95019
2022-09-02T19:44:07.808Z,95018
2022-09-02T19:50:58.165Z,95024
2022-09-02T19:54:23.337Z,95021
2022-09-02T19:57:48.511Z,95027
2022-09-02T20:01:13.773Z,95026
2022-09-02T20:04:38.896Z,95025
2022-09-02T20:08:04.088Z,95032
2022-09-02T20:11:29.279Z,95028
2022-09-02T20:14:54.475Z,95034
2022-09-02T20:18:19.707Z,95032
2022-09-02T20:21:44.843Z,95037
2022-09-02T20:25:10.032Z,95030
2022-09-02T20:28:35.228Z,95026
2022-09-02T20:32:00.473Z,95028
2022-09-02T20:35:25.580Z,95027
2022-09-02T20:38:50.745Z,95025
2022-09-02T20:42:15.926Z,95024
2022-09-02T20:45:41.111Z,95027
2022-09-02T20:49:06.278Z,95028
2022-09-02T20:52:31.496Z,95036
2022-09-02T20:55:56.647Z,95027
2022-09-02T20:59:21.823Z,95028
2022-09-02T21:02:47.004Z,95031
2022-09-02T21:06:12.218Z,95034
2022-09-02T21:09:37.379Z,95022
2022-09-02T21:13:02.553Z,95033
2022-09-02T21:16:27.771Z,95037
2022-09-02T21:19:52.894Z,95036
2022-09-02T21:23:18.070Z,95032
2022-09-02T21:26:43.258Z,95029
2022-09-02T21:30:08.451Z,95025
2022-09-02T21:33:33.629Z,95027
2022-09-02T21:36:58.822Z,95027
2022-09-02T21:40:23.996Z,95032
2022-09-02T21:43:49.151Z,95032
2022-09-02T21:47:14.341Z,95034
2022-09-02T21:50:39.533Z,95029
2022-09-02T21:54:04.712Z,95022
2022-09-02T21:57:29.885Z,95023
2022-09-02T22:00:55.094Z,95023
2022-09-02T22:04:20.237Z,95017
2022-09-02T22:07:45.406Z,95021
2022-09-02T22:11:10.583Z,95015
2022-09-02T22:14:35.741Z,95014
2022-09-02T22:18:00.927Z,95013
2022-09-02T22:21:26.092Z,95020
2022-09-02T22:24:51.271Z,95018
2022-09-02T22:28:16.447Z,95019
2022-09-02T22:31:41.700Z,95019
2022-09-02T22:35:06.861Z,95017
2022-09-02T22:38:32.025Z,95018
2022-09-02T22:41:57.228Z,95024
2022-09-02T22:45:22.396Z,95026
2022-09-02T22:48:47.569Z,95021
2022-09-02T22:52:12.770Z,95015
2022-09-02T22:55:37.940Z,95012
2022-09-02T22:59:03.113Z,95006
2022-09-02T23:02:28.291Z,95004
2022-09-02T23:05:53.486Z,94997
2022-09-02T23:09:18.640Z,94997
2022-09-02T23:12:43.812Z,94994
2022-09-02T23:16:09.073Z,94999
2022-09-02T23:19:34.215Z,94992
2022-09-02T23:22:59.416Z,94988
2022-09-02T23:26:24.578Z,94986
2022-09-02T23:29:49.764Z,94982
2022-09-02T23:33:14.946Z,94983
2022-09-02T23:36:40.142Z,94973
2022-09-02T23:40:05.310Z,94972
2022-09-02T23:43:30.469Z,94971
2022-09-02T23:46:55.674Z,94969
2022-09-02T23:50:20.853Z,94963
2022-09-02T23:53:46.029Z,94958
2022-09-02T23:57:11.215Z,94957
